sensor_id;sensor_type;location;lat;lon;timestamp;temperature;humidity
6178;DHT22;3122;48.208;11.174;2024-03-17T00:04:52;7.80;1.00
6178;DHT22;3122;48.208;11.174;2024-03-17T00:09:53;7.70;1.00
6178;DHT22;3122;48.208;11.174;2024-03-17T00:14:53;7.70;1.00
6178;DHT22;3122;48.208;11.174;2024-03-17T00:19:54;7.60;1.00
6178;DHT22;3122;48.208;11.174;2024-03-17T00:24:54;7.70;1.00
6178;DHT22;3122;48.208;11.174;2024-03-17T00:29:55;7.50;1.00
6178;DHT22;3122;48.208;11.174;2024-03-17T00:34:55;7.40;1.00
6178;DHT22;3122;48.208;11.174;2024-03-17T00:39:56;7.50;1.00
6178;DHT22;3122;48.208;11.174;2024-03-17T00:44:57;7.50;1.00
6178;DHT22;3122;48.208;11.174;2024-03-17T00:50:00;7.40;1.00
6178;DHT22;3122;48.208;11.174;2024-03-17T00:55:01;7.40;1.00
6178;DHT22;3122;48.208;11.174;2024-03-17T01:00:02;7.40;1.00
6178;DHT22;3122;48.208;11.174;2024-03-17T01:05:03;7.40;1.00
6178;DHT22;3122;48.208;11.174;2024-03-17T01:10:06;7.50;1.00
6178;DHT22;3122;48.208;11.174;2024-03-17T01:15:09;7.50;1.00
6178;DHT22;3122;48.208;11.174;2024-03-17T01:20:09;7.50;1.00
6178;DHT22;3122;48.208;11.174;2024-03-17T01:25:10;7.50;1.00
6178;DHT22;3122;48.208;11.174;2024-03-17T01:30:11;7.40;1.00
6178;DHT22;3122;48.208;11.174;2024-03-17T01:35:12;7.40;1.00
6178;DHT22;3122;48.208;11.174;2024-03-17T01:40:13;7.40;1.00
6178;DHT22;3122;48.208;11.174;2024-03-17T01:45:27;7.40;1.00
6178;DHT22;3122;48.208;11.174;2024-03-17T01:50:37;7.40;1.00
6178;DHT22;3122;48.208;11.174;2024-03-17T01:55:38;7.40;1.00
6178;DHT22;3122;48.208;11.174;2024-03-17T02:00:40;7.40;1.00
6178;DHT22;3122;48.208;11.174;2024-03-17T02:05:40;7.40;1.00
6178;DHT22;3122;48.208;11.174;2024-03-17T02:10:41;7.40;1.00
6178;DHT22;3122;48.208;11.174;2024-03-17T02:15:41;7.40;1.00
6178;DHT22;3122;48.208;11.174;2024-03-17T02:20:42;7.30;1.00
6178;DHT22;3122;48.208;11.174;2024-03-17T02:25:55;7.30;1.00
6178;DHT22;3122;48.208;11.174;2024-03-17T02:30:56;7.30;1.00
6178;DHT22;3122;48.208;11.174;2024-03-17T02:35:56;7.30;1.00
6178;DHT22;3122;48.208;11.174;2024-03-17T02:40:57;7.20;1.00
6178;DHT22;3122;48.208;11.174;2024-03-17T02:45:57;7.20;1.00
6178;DHT22;3122;48.208;11.174;2024-03-17T02:50:58;7.30;1.00
6178;DHT22;3122;48.208;11.174;2024-03-17T02:55:59;7.30;1.00
6178;DHT22;3122;48.208;11.174;2024-03-17T03:00:59;7.30;1.00
6178;DHT22;3122;48.208;11.174;2024-03-17T03:06:00;7.30;1.00
6178;DHT22;3122;48.208;11.174;2024-03-17T03:11:09;7.20;1.00
6178;DHT22;3122;48.208;11.174;2024-03-17T03:16:14;7.20;1.00
6178;DHT22;3122;48.208;11.174;2024-03-17T03:21:14;7.20;1.00
6178;DHT22;3122;48.208;11.174;2024-03-17T03:26:15;7.20;1.00
6178;DHT22;3122;48.208;11.174;2024-03-17T03:31:16;7.20;1.00
6178;DHT22;3122;48.208;11.174;2024-03-17T03:36:55;7.20;1.00
6178;DHT22;3122;48.208;11.174;2024-03-17T03:41:56;7.20;1.00
6178;DHT22;3122;48.208;11.174;2024-03-17T03:46:57;7.10;1.00
6178;DHT22;3122;48.208;11.174;2024-03-17T03:51:58;7.10;1.00
6178;DHT22;3122;48.208;11.174;2024-03-17T03:56:59;7.00;1.00
6178;DHT22;3122;48.208;11.174;2024-03-17T04:02:00;7.00;1.00
6178;DHT22;3122;48.208;11.174;2024-03-17T04:07:00;7.00;1.00
6178;DHT22;3122;48.208;11.174;2024-03-17T04:12:01;7.00;1.00
6178;DHT22;3122;48.208;11.174;2024-03-17T04:17:03;6.90;1.00
6178;DHT22;3122;48.208;11.174;2024-03-17T04:22:04;6.90;1.00
6178;DHT22;3122;48.208;11.174;2024-03-17T04:27:04;7.00;1.00
6178;DHT22;3122;48.208;11.174;2024-03-17T04:32:05;7.00;1.00
6178;DHT22;3122;48.208;11.174;2024-03-17T04:37:06;7.00;1.00
6178;DHT22;3122;48.208;11.174;2024-03-17T04:42:07;6.90;1.00
6178;DHT22;3122;48.208;11.174;2024-03-17T04:47:07;6.90;1.00
6178;DHT22;3122;48.208;11.174;2024-03-17T04:52:10;6.90;1.00
6178;DHT22;3122;48.208;11.174;2024-03-17T04:57:11;6.80;1.00
6178;DHT22;3122;48.208;11.174;2024-03-17T05:02:11;6.80;1.00
6178;DHT22;3122;48.208;11.174;2024-03-17T05:07:12;6.70;1.00
6178;DHT22;3122;48.208;11.174;2024-03-17T05:12:12;6.70;1.00
6178;DHT22;3122;48.208;11.174;2024-03-17T05:17:13;6.70;1.00
6178;DHT22;3122;48.208;11.174;2024-03-17T05:22:13;6.60;1.00
6178;DHT22;3122;48.208;11.174;2024-03-17T05:27:14;6.70;1.00
6178;DHT22;3122;48.208;11.174;2024-03-17T05:32:14;6.60;1.00
6178;DHT22;3122;48.208;11.174;2024-03-17T05:37:15;6.70;1.00
6178;DHT22;3122;48.208;11.174;2024-03-17T05:42:16;6.70;1.00
6178;DHT22;3122;48.208;11.174;2024-03-17T05:47:17;6.70;1.00
6178;DHT22;3122;48.208;11.174;2024-03-17T05:52:18;6.70;1.00
6178;DHT22;3122;48.208;11.174;2024-03-17T05:57:19;6.70;1.00
6178;DHT22;3122;48.208;11.174;2024-03-17T06:02:19;6.70;1.00
6178;DHT22;3122;48.208;11.174;2024-03-17T06:07:20;6.70;1.00
6178;DHT22;3122;48.208;11.174;2024-03-17T06:12:21;6.80;1.00
6178;DHT22;3122;48.208;11.174;2024-03-17T06:17:21;6.80;1.00
6178;DHT22;3122;48.208;11.174;2024-03-17T06:22:22;6.80;1.00
6178;DHT22;3122;48.208;11.174;2024-03-17T06:27:23;6.90;1.00
6178;DHT22;3122;48.208;11.174;2024-03-17T06:32:24;6.90;1.00
6178;DHT22;3122;48.208;11.174;2024-03-17T06:37:25;7.00;1.00
6178;DHT22;3122;48.208;11.174;2024-03-17T06:42:25;7.10;1.00
6178;DHT22;3122;48.208;11.174;2024-03-17T06:47:26;7.10;1.00
6178;DHT22;3122;48.208;11.174;2024-03-17T06:52:26;7.20;1.00
6178;DHT22;3122;48.208;11.174;2024-03-17T06:57:27;7.30;1.00
6178;DHT22;3122;48.208;11.174;2024-03-17T07:02:27;7.40;1.00
6178;DHT22;3122;48.208;11.174;2024-03-17T07:07:28;7.40;1.00
6178;DHT22;3122;48.208;11.174;2024-03-17T07:12:29;7.50;1.00
6178;DHT22;3122;48.208;11.174;2024-03-17T07:17:29;7.60;1.00
6178;DHT22;3122;48.208;11.174;2024-03-17T07:22:30;7.70;1.00
6178;DHT22;3122;48.208;11.174;2024-03-17T07:27:30;7.80;1.00
6178;DHT22;3122;48.208;11.174;2024-03-17T07:32:32;7.80;1.00
6178;DHT22;3122;48.208;11.174;2024-03-17T07:37:32;7.80;1.00
6178;DHT22;3122;48.208;11.174;2024-03-17T07:42:33;7.90;1.00
6178;DHT22;3122;48.208;11.174;2024-03-17T07:47:34;8.00;1.00
6178;DHT22;3122;48.208;11.174;2024-03-17T07:52:37;8.10;1.00
6178;DHT22;3122;48.208;11.174;2024-03-17T07:57:38;8.20;1.00
6178;DHT22;3122;48.208;11.174;2024-03-17T08:02:39;8.30;1.00
6178;DHT22;3122;48.208;11.174;2024-03-17T08:07:40;8.50;1.00
6178;DHT22;3122;48.208;11.174;2024-03-17T08:12:42;8.60;1.00
6178;DHT22;3122;48.208;11.174;2024-03-17T08:17:43;8.80;1.00
6178;DHT22;3122;48.208;11.174;2024-03-17T08:22:43;9.00;1.00
6178;DHT22;3122;48.208;11.174;2024-03-17T08:27:44;9.00;1.00
6178;DHT22;3122;48.208;11.174;2024-03-17T08:32:44;9.10;1.00
6178;DHT22;3122;48.208;11.174;2024-03-17T08:37:45;9.10;1.00
6178;DHT22;3122;48.208;11.174;2024-03-17T08:42:45;9.10;1.00
6178;DHT22;3122;48.208;11.174;2024-03-17T08:47:51;9.30;1.00
6178;DHT22;3122;48.208;11.174;2024-03-17T08:52:52;9.60;1.00
6178;DHT22;3122;48.208;11.174;2024-03-17T08:57:52;9.90;1.00
6178;DHT22;3122;48.208;11.174;2024-03-17T09:02:53;10.00;1.00
6178;DHT22;3122;48.208;11.174;2024-03-17T09:07:53;10.00;1.00
6178;DHT22;3122;48.208;11.174;2024-03-17T09:12:55;10.00;1.00
6178;DHT22;3122;48.208;11.174;2024-03-17T09:17:57;10.00;1.00
6178;DHT22;3122;48.208;11.174;2024-03-17T09:22:57;10.10;1.00
6178;DHT22;3122;48.208;11.174;2024-03-17T09:27:58;10.30;1.00
6178;DHT22;3122;48.208;11.174;2024-03-17T09:32:59;10.40;1.00
6178;DHT22;3122;48.208;11.174;2024-03-17T09:38:00;10.40;1.00
6178;DHT22;3122;48.208;11.174;2024-03-17T09:43:00;10.50;1.00
6178;DHT22;3122;48.208;11.174;2024-03-17T09:48:01;10.70;1.00
6178;DHT22;3122;48.208;11.174;2024-03-17T09:53:02;10.60;1.00
6178;DHT22;3122;48.208;11.174;2024-03-17T09:58:02;10.60;1.00
6178;DHT22;3122;48.208;11.174;2024-03-17T10:03:03;10.70;1.00
6178;DHT22;3122;48.208;11.174;2024-03-17T10:08:04;10.80;1.00
6178;DHT22;3122;48.208;11.174;2024-03-17T10:13:12;10.80;1.00
6178;DHT22;3122;48.208;11.174;2024-03-17T10:18:22;10.90;1.00
6178;DHT22;3122;48.208;11.174;2024-03-17T10:23:23;10.90;1.00
6178;DHT22;3122;48.208;11.174;2024-03-17T10:28:24;10.80;1.00
6178;DHT22;3122;48.208;11.174;2024-03-17T10:33:26;10.90;1.00
6178;DHT22;3122;48.208;11.174;2024-03-17T10:38:27;10.90;1.00
6178;DHT22;3122;48.208;11.174;2024-03-17T10:43:28;10.90;1.00
6178;DHT22;3122;48.208;11.174;2024-03-17T10:48:31;11.10;1.00
6178;DHT22;3122;48.208;11.174;2024-03-17T10:53:34;11.10;1.00
6178;DHT22;3122;48.208;11.174;2024-03-17T10:58:36;11.40;1.00
6178;DHT22;3122;48.208;11.174;2024-03-17T11:03:38;11.70;1.00
6178;DHT22;3122;48.208;11.174;2024-03-17T11:08:40;11.70;1.00
6178;DHT22;3122;48.208;11.174;2024-03-17T11:13:42;11.50;1.00
6178;DHT22;3122;48.208;11.174;2024-03-17T11:18:43;11.30;1.00
6178;DHT22;3122;48.208;11.174;2024-03-17T11:23:58;11.40;1.00
6178;DHT22;3122;48.208;11.174;2024-03-17T11:28:59;11.70;1.00
6178;DHT22;3122;48.208;11.174;2024-03-17T11:34:05;12.00;1.00
6178;DHT22;3122;48.208;11.174;2024-03-17T11:39:09;12.20;1.00
6178;DHT22;3122;48.208;11.174;2024-03-17T11:44:25;12.50;1.00
6178;DHT22;3122;48.208;11.174;2024-03-17T11:49:41;12.80;1.00
6178;DHT22;3122;48.208;11.174;2024-03-17T11:54:46;12.80;1.00
6178;DHT22;3122;48.208;11.174;2024-03-17T11:59:48;12.70;1.00
6178;DHT22;3122;48.208;11.174;2024-03-17T12:04:49;12.70;1.00
6178;DHT22;3122;48.208;11.174;2024-03-17T12:09:51;12.70;1.00
6178;DHT22;3122;48.208;11.174;2024-03-17T12:14:54;12.70;1.00
6178;DHT22;3122;48.208;11.174;2024-03-17T12:19:54;12.80;1.00
6178;DHT22;3122;48.208;11.174;2024-03-17T12:24:56;12.80;1.00
6178;DHT22;3122;48.208;11.174;2024-03-17T12:29:58;12.40;1.00
6178;DHT22;3122;48.208;11.174;2024-03-17T12:35:00;12.90;1.00
6178;DHT22;3122;48.208;11.174;2024-03-17T12:40:02;12.90;1.00
6178;DHT22;3122;48.208;11.174;2024-03-17T12:45:09;12.90;1.00
6178;DHT22;3122;48.208;11.174;2024-03-17T12:50:12;12.70;1.00
6178;DHT22;3122;48.208;11.174;2024-03-17T12:55:18;12.60;1.00
6178;DHT22;3122;48.208;11.174;2024-03-17T13:00:38;12.80;1.00
6178;DHT22;3122;48.208;11.174;2024-03-17T13:05:38;12.70;1.00
6178;DHT22;3122;48.208;11.174;2024-03-17T13:10:47;12.70;1.00
6178;DHT22;3122;48.208;11.174;2024-03-17T13:15:48;12.70;1.00
6178;DHT22;3122;48.208;11.174;2024-03-17T13:20:48;13.00;1.00
6178;DHT22;3122;48.208;11.174;2024-03-17T13:25:57;13.00;1.00
6178;DHT22;3122;48.208;11.174;2024-03-17T13:30:58;13.30;1.00
6178;DHT22;3122;48.208;11.174;2024-03-17T13:35:58;13.00;1.00
6178;DHT22;3122;48.208;11.174;2024-03-17T13:40:59;12.90;1.00
6178;DHT22;3122;48.208;11.174;2024-03-17T13:45:59;12.70;1.00
6178;DHT22;3122;48.208;11.174;2024-03-17T13:51:00;12.60;1.00
6178;DHT22;3122;48.208;11.174;2024-03-17T13:56:01;12.70;1.00
6178;DHT22;3122;48.208;11.174;2024-03-17T14:01:01;12.80;1.00
6178;DHT22;3122;48.208;11.174;2024-03-17T14:06:02;12.90;1.00
6178;DHT22;3122;48.208;11.174;2024-03-17T14:11:03;13.10;1.00
6178;DHT22;3122;48.208;11.174;2024-03-17T14:16:04;13.00;1.00
6178;DHT22;3122;48.208;11.174;2024-03-17T14:21:05;12.80;1.00
6178;DHT22;3122;48.208;11.174;2024-03-17T14:26:06;12.60;1.00
6178;DHT22;3122;48.208;11.174;2024-03-17T14:31:07;12.80;1.00
6178;DHT22;3122;48.208;11.174;2024-03-17T14:36:07;12.80;1.00
6178;DHT22;3122;48.208;11.174;2024-03-17T14:41:08;12.60;1.00
6178;DHT22;3122;48.208;11.174;2024-03-17T14:46:09;12.60;1.00
6178;DHT22;3122;48.208;11.174;2024-03-17T14:51:13;12.60;1.00
6178;DHT22;3122;48.208;11.174;2024-03-17T14:56:15;12.50;1.00
6178;DHT22;3122;48.208;11.174;2024-03-17T15:01:16;12.50;1.00
6178;DHT22;3122;48.208;11.174;2024-03-17T15:06:17;12.50;1.00
6178;DHT22;3122;48.208;11.174;2024-03-17T15:11:18;12.50;1.00
6178;DHT22;3122;48.208;11.174;2024-03-17T15:16:19;12.50;1.00
6178;DHT22;3122;48.208;11.174;2024-03-17T15:21:19;12.50;1.00
6178;DHT22;3122;48.208;11.174;2024-03-17T15:26:21;12.60;1.00
6178;DHT22;3122;48.208;11.174;2024-03-17T15:31:21;12.50;1.00
6178;DHT22;3122;48.208;11.174;2024-03-17T15:36:23;12.50;1.00
6178;DHT22;3122;48.208;11.174;2024-03-17T15:41:24;12.40;1.00
6178;DHT22;3122;48.208;11.174;2024-03-17T15:46:25;12.40;1.00
6178;DHT22;3122;48.208;11.174;2024-03-17T15:51:26;12.30;1.00
6178;DHT22;3122;48.208;11.174;2024-03-17T15:56:26;12.30;1.00
6178;DHT22;3122;48.208;11.174;2024-03-17T16:01:27;12.20;1.00
6178;DHT22;3122;48.208;11.174;2024-03-17T16:06:27;12.10;1.00
6178;DHT22;3122;48.208;11.174;2024-03-17T16:11:29;12.00;1.00
6178;DHT22;3122;48.208;11.174;2024-03-17T16:16:30;12.00;1.00
6178;DHT22;3122;48.208;11.174;2024-03-17T16:21:32;11.90;1.00
6178;DHT22;3122;48.208;11.174;2024-03-17T16:26:32;11.80;1.00
6178;DHT22;3122;48.208;11.174;2024-03-17T16:31:38;11.80;1.00
6178;DHT22;3122;48.208;11.174;2024-03-17T16:36:38;11.60;1.00
6178;DHT22;3122;48.208;11.174;2024-03-17T16:41:41;11.50;1.00
6178;DHT22;3122;48.208;11.174;2024-03-17T16:52:18;11.40;1.00
6178;DHT22;3122;48.208;11.174;2024-03-17T16:57:18;11.30;1.00
6178;DHT22;3122;48.208;11.174;2024-03-17T17:02:19;11.20;1.00
6178;DHT22;3122;48.208;11.174;2024-03-17T17:07:20;11.20;1.00
6178;DHT22;3122;48.208;11.174;2024-03-17T17:12:21;11.10;1.00
6178;DHT22;3122;48.208;11.174;2024-03-17T17:17:21;11.10;1.00
6178;DHT22;3122;48.208;11.174;2024-03-17T17:22:22;11.10;1.00
6178;DHT22;3122;48.208;11.174;2024-03-17T17:27:22;11.10;1.00
6178;DHT22;3122;48.208;11.174;2024-03-17T17:32:23;11.10;1.00
6178;DHT22;3122;48.208;11.174;2024-03-17T17:37:23;11.00;1.00
6178;DHT22;3122;48.208;11.174;2024-03-17T17:42:24;11.00;1.00
6178;DHT22;3122;48.208;11.174;2024-03-17T17:47:25;11.00;1.00
6178;DHT22;3122;48.208;11.174;2024-03-17T17:52:25;11.00;1.00
6178;DHT22;3122;48.208;11.174;2024-03-17T17:57:26;11.00;1.00
6178;DHT22;3122;48.208;11.174;2024-03-17T18:02:26;11.00;1.00
6178;DHT22;3122;48.208;11.174;2024-03-17T18:07:29;10.90;1.00
6178;DHT22;3122;48.208;11.174;2024-03-17T18:12:31;10.90;1.00
6178;DHT22;3122;48.208;11.174;2024-03-17T18:17:32;10.90;1.00
6178;DHT22;3122;48.208;11.174;2024-03-17T18:22:33;10.80;1.00
6178;DHT22;3122;48.208;11.174;2024-03-17T18:27:33;10.80;1.00
6178;DHT22;3122;48.208;11.174;2024-03-17T18:32:35;10.80;1.00
6178;DHT22;3122;48.208;11.174;2024-03-17T18:37:36;10.70;1.00
6178;DHT22;3122;48.208;11.174;2024-03-17T18:42:36;10.60;1.00
6178;DHT22;3122;48.208;11.174;2024-03-17T18:47:38;10.50;1.00
6178;DHT22;3122;48.208;11.174;2024-03-17T18:52:38;10.40;1.00
6178;DHT22;3122;48.208;11.174;2024-03-17T18:57:39;10.50;1.00
6178;DHT22;3122;48.208;11.174;2024-03-17T19:02:46;10.40;1.00
6178;DHT22;3122;48.208;11.174;2024-03-17T19:07:46;10.40;1.00
6178;DHT22;3122;48.208;11.174;2024-03-17T19:12:50;10.30;1.00
6178;DHT22;3122;48.208;11.174;2024-03-17T19:17:52;10.40;1.00
6178;DHT22;3122;48.208;11.174;2024-03-17T19:22:53;10.30;1.00
6178;DHT22;3122;48.208;11.174;2024-03-17T19:27:54;10.30;1.00
6178;DHT22;3122;48.208;11.174;2024-03-17T19:32:54;10.30;1.00
6178;DHT22;3122;48.208;11.174;2024-03-17T19:37:55;10.20;1.00
6178;DHT22;3122;48.208;11.174;2024-03-17T19:42:55;10.20;1.00
6178;DHT22;3122;48.208;11.174;2024-03-17T19:47:56;10.10;1.00
6178;DHT22;3122;48.208;11.174;2024-03-17T19:52:56;10.10;1.00
6178;DHT22;3122;48.208;11.174;2024-03-17T19:57:57;10.10;1.00
6178;DHT22;3122;48.208;11.174;2024-03-17T20:02:57;10.10;1.00
6178;DHT22;3122;48.208;11.174;2024-03-17T20:07:58;10.10;1.00
6178;DHT22;3122;48.208;11.174;2024-03-17T20:12:59;10.10;1.00
6178;DHT22;3122;48.208;11.174;2024-03-17T20:18:00;10.00;1.00
6178;DHT22;3122;48.208;11.174;2024-03-17T20:23:00;10.00;1.00
6178;DHT22;3122;48.208;11.174;2024-03-17T20:28:01;10.00;1.00
6178;DHT22;3122;48.208;11.174;2024-03-17T20:33:02;9.90;1.00
6178;DHT22;3122;48.208;11.174;2024-03-17T20:38:03;9.90;1.00
6178;DHT22;3122;48.208;11.174;2024-03-17T20:43:04;9.80;1.00
6178;DHT22;3122;48.208;11.174;2024-03-17T20:48:05;9.90;1.00
6178;DHT22;3122;48.208;11.174;2024-03-17T20:53:06;9.90;1.00
6178;DHT22;3122;48.208;11.174;2024-03-17T20:58:12;9.90;1.00
6178;DHT22;3122;48.208;11.174;2024-03-17T21:03:12;9.80;1.00
6178;DHT22;3122;48.208;11.174;2024-03-17T21:08:13;9.80;1.00
6178;DHT22;3122;48.208;11.174;2024-03-17T21:13:16;9.70;1.00
6178;DHT22;3122;48.208;11.174;2024-03-17T21:18:17;9.70;1.00
6178;DHT22;3122;48.208;11.174;2024-03-17T21:23:19;9.60;1.00
6178;DHT22;3122;48.208;11.174;2024-03-17T21:28:20;9.60;1.00
6178;DHT22;3122;48.208;11.174;2024-03-17T21:33:20;9.60;1.00
6178;DHT22;3122;48.208;11.174;2024-03-17T21:38:21;9.60;1.00
6178;DHT22;3122;48.208;11.174;2024-03-17T21:43:22;9.60;1.00
6178;DHT22;3122;48.208;11.174;2024-03-17T21:48:22;9.50;1.00
6178;DHT22;3122;48.208;11.174;2024-03-17T21:53:23;9.50;1.00
6178;DHT22;3122;48.208;11.174;2024-03-17T21:58:24;9.50;1.00
6178;DHT22;3122;48.208;11.174;2024-03-17T22:03:24;9.40;1.00
6178;DHT22;3122;48.208;11.174;2024-03-17T22:08:25;9.40;1.00
6178;DHT22;3122;48.208;11.174;2024-03-17T22:13:27;9.30;1.00
6178;DHT22;3122;48.208;11.174;2024-03-17T22:18:28;9.30;1.00
6178;DHT22;3122;48.208;11.174;2024-03-17T22:23:30;9.20;1.00
6178;DHT22;3122;48.208;11.174;2024-03-17T22:28:31;9.20;1.00
6178;DHT22;3122;48.208;11.174;2024-03-17T22:33:33;9.20;1.00
6178;DHT22;3122;48.208;11.174;2024-03-17T22:38:36;9.30;1.00
6178;DHT22;3122;48.208;11.174;2024-03-17T22:43:40;9.30;1.00
6178;DHT22;3122;48.208;11.174;2024-03-17T22:48:42;9.20;1.00
6178;DHT22;3122;48.208;11.174;2024-03-17T22:53:44;9.10;1.00
6178;DHT22;3122;48.208;11.174;2024-03-17T22:58:44;9.20;1.00
6178;DHT22;3122;48.208;11.174;2024-03-17T23:03:46;9.20;1.00
6178;DHT22;3122;48.208;11.174;2024-03-17T23:08:46;9.20;1.00
6178;DHT22;3122;48.208;11.174;2024-03-17T23:13:48;9.10;1.00
6178;DHT22;3122;48.208;11.174;2024-03-17T23:18:49;9.20;1.00
6178;DHT22;3122;48.208;11.174;2024-03-17T23:23:49;9.10;1.00
6178;DHT22;3122;48.208;11.174;2024-03-17T23:28:50;9.20;1.00
6178;DHT22;3122;48.208;11.174;2024-03-17T23:33:51;9.20;1.00
6178;DHT22;3122;48.208;11.174;2024-03-17T23:38:51;9.20;1.00
6178;DHT22;3122;48.208;11.174;2024-03-17T23:43:53;9.10;1.00
6178;DHT22;3122;48.208;11.174;2024-03-17T23:48:54;9.10;1.00
6178;DHT22;3122;48.208;11.174;2024-03-17T23:53:54;9.00;1.00
6178;DHT22;3122;48.208;11.174;2024-03-17T23:58:55;9.00;1.00
